Time;durP1;ratioP1;P1;durP2;ratioP2;P2;SDS_P1;SDS_P2;PMS_P1;PMS_P2;Temp;Humidity;BMP_temperature;BMP_pressure;BME280_temperature;BME280_humidity;BME280_pressure;Samples;Min_cycle;Max_cycle;Signal;HPM_P1;HPM_P2
2021/07/14 00:02:36;;;;;;;9.18;4.53;;;;;;;;;;6199676;23;20171;-89
2021/07/14 00:05:42;;;;;;;8.20;4.63;;;;;;;;;;6196185;23;20164;-88
2021/07/14 00:08:47;;;;;;;8.88;4.70;;;;;;;;;;6197224;23;20199;-89
2021/07/14 00:11:56;;;;;;;8.55;4.63;;;;;;;;;;6197196;23;20163;-88
2021/07/14 00:22:08;;;;;;;13.27;4.55;;;;;;;;;;6199111;23;20212;-89
2021/07/14 00:25:14;;;;;;;8.63;3.92;;;;;;;;;;6197814;23;20176;-89
2021/07/14 00:28:20;;;;;;;7.45;3.60;;;;;;;;;;6198855;23;20180;-88
2021/07/14 00:31:26;;;;;;;8.32;4.07;;;;;;;;;;6198880;23;20190;-89
2021/07/14 00:34:31;;;;;;;8.50;4.85;;;;;;;;;;6197805;23;20164;-89
2021/07/14 00:37:37;;;;;;;13.00;4.65;;;;;;;;;;6196577;23;20167;-87
2021/07/14 00:40:42;;;;;;;7.32;4.28;;;;;;;;;;6197769;23;20164;-89
2021/07/14 00:43:49;;;;;;;7.95;4.38;;;;;;;;;;6199472;23;20279;-88
2021/07/14 00:46:54;;;;;;;13.23;4.90;;;;;;;;;;6198924;23;20172;-90
2021/07/14 00:50:00;;;;;;;11.32;5.07;;;;;;;;;;6197810;23;20180;-91
2021/07/14 00:53:06;;;;;;;8.70;4.43;;;;;;;;;;6198739;23;20171;-88
2021/07/14 00:56:12;;;;;;;10.68;4.30;;;;;;;;;;6199102;23;20167;-89
2021/07/14 00:59:18;;;;;;;9.75;4.05;;;;;;;;;;6199681;23;20243;-88
2021/07/14 01:02:25;;;;;;;8.70;4.32;;;;;;;;;;6200171;23;20549;-88
2021/07/14 01:05:32;;;;;;;10.02;4.88;;;;;;;;;;6198590;23;20172;-89
2021/07/14 01:08:41;;;;;;;8.85;5.05;;;;;;;;;;6197683;23;20195;-89
2021/07/14 01:11:49;;;;;;;10.57;5.30;;;;;;;;;;6198801;23;20172;-89
2021/07/14 01:14:58;;;;;;;11.80;5.10;;;;;;;;;;6201965;23;20171;-88
2021/07/14 01:18:09;;;;;;;10.52;4.97;;;;;;;;;;6200411;23;20282;-89
2021/07/14 01:21:17;;;;;;;11.02;5.45;;;;;;;;;;6199301;23;20164;-89
2021/07/14 01:24:23;;;;;;;12.70;5.30;;;;;;;;;;6198200;23;20171;-87
2021/07/14 01:27:34;;;;;;;11.20;5.07;;;;;;;;;;6198522;23;20168;-88
2021/07/14 01:30:40;;;;;;;12.50;5.63;;;;;;;;;;6200229;23;20646;-87
2021/07/14 01:33:46;;;;;;;9.38;5.47;;;;;;;;;;6200114;23;20167;-89
2021/07/14 01:36:53;;;;;;;9.75;5.90;;;;;;;;;;6199706;23;20171;-88
2021/07/14 01:40:00;;;;;;;10.45;5.65;;;;;;;;;;6199611;23;20163;-88
2021/07/14 01:43:07;;;;;;;13.80;5.70;;;;;;;;;;6198625;23;20180;-88
2021/07/14 01:46:13;;;;;;;12.93;6.35;;;;;;;;;;6198880;23;20622;-88
2021/07/14 01:49:19;;;;;;;13.02;6.20;;;;;;;;;;6197915;23;20187;-89
2021/07/14 01:52:25;;;;;;;9.35;6.25;;;;;;;;;;6199381;23;20220;-88
2021/07/14 01:55:32;;;;;;;9.20;6.53;;;;;;;;;;6197881;23;20168;-89
2021/07/14 01:58:40;;;;;;;15.70;8.15;;;;;;;;;;6196744;23;20554;-89
2021/07/14 02:01:45;;;;;;;23.38;11.45;;;;;;;;;;6198793;23;20172;-89
2021/07/14 02:04:51;;;;;;;29.40;14.85;;;;;;;;;;6199329;23;20163;-89
2021/07/14 02:07:58;;;;;;;26.55;14.45;;;;;;;;;;6196926;23;20164;-90
2021/07/14 02:11:04;;;;;;;21.60;12.65;;;;;;;;;;6196560;23;20627;-87
2021/07/14 02:14:13;;;;;;;21.50;11.43;;;;;;;;;;6197008;23;20167;-89
2021/07/14 02:17:19;;;;;;;15.02;10.57;;;;;;;;;;6197754;23;20156;-90
2021/07/14 02:20:24;;;;;;;17.40;11.25;;;;;;;;;;6198286;23;20171;-89
2021/07/14 02:23:29;;;;;;;16.30;10.35;;;;;;;;;;6196626;23;20165;-90
2021/07/14 02:26:35;;;;;;;18.02;10.70;;;;;;;;;;6196187;23;20176;-89
2021/07/14 02:29:41;;;;;;;16.63;9.60;;;;;;;;;;6197120;23;20192;-88
2021/07/14 02:32:47;;;;;;;14.77;10.88;;;;;;;;;;6196702;23;20163;-89
2021/07/14 02:35:54;;;;;;;18.33;11.15;;;;;;;;;;6198502;23;20171;-88
2021/07/14 02:39:02;;;;;;;17.92;11.88;;;;;;;;;;6198797;23;20154;-89
2021/07/14 02:42:11;;;;;;;21.08;12.77;;;;;;;;;;6197449;23;20172;-89
2021/07/14 02:45:17;;;;;;;17.85;11.77;;;;;;;;;;6198260;23;20153;-89
2021/07/14 02:48:25;;;;;;;21.42;12.23;;;;;;;;;;6197981;23;20195;-89
2021/07/14 02:51:31;;;;;;;17.13;11.85;;;;;;;;;;6198374;23;20291;-89
2021/07/14 02:54:36;;;;;;;15.23;10.82;;;;;;;;;;6198718;23;20168;-89
2021/07/14 02:57:42;;;;;;;18.88;12.68;;;;;;;;;;6197291;23;20236;-89
2021/07/14 03:00:49;;;;;;;18.63;11.80;;;;;;;;;;6196169;23;20155;-90
2021/07/14 03:03:55;;;;;;;18.75;12.18;;;;;;;;;;6197540;23;20540;-87
2021/07/14 03:07:02;;;;;;;15.65;11.88;;;;;;;;;;6198049;23;20493;-89
2021/07/14 03:10:08;;;;;;;16.80;11.50;;;;;;;;;;6198899;23;20200;-90
2021/07/14 03:13:13;;;;;;;18.25;12.13;;;;;;;;;;6197932;23;20164;-89
2021/07/14 03:16:20;;;;;;;19.33;12.35;;;;;;;;;;6197774;23;20164;-88
2021/07/14 03:19:25;;;;;;;15.93;10.98;;;;;;;;;;6197420;23;20216;-89
2021/07/14 03:22:30;;;;;;;18.48;12.07;;;;;;;;;;6198094;23;20207;-89
2021/07/14 03:25:36;;;;;;;17.88;11.38;;;;;;;;;;6196994;23;20667;-88
2021/07/14 03:28:41;;;;;;;17.10;11.20;;;;;;;;;;6196921;23;20191;-89
2021/07/14 03:31:48;;;;;;;17.77;11.45;;;;;;;;;;6197384;23;20257;-89
2021/07/14 03:34:53;;;;;;;19.38;11.60;;;;;;;;;;6197118;23;20178;-88
2021/07/14 03:38:03;;;;;;;18.38;11.30;;;;;;;;;;6197941;23;20168;-88
2021/07/14 03:41:08;;;;;;;20.73;12.45;;;;;;;;;;6196889;23;20496;-89
2021/07/14 03:44:14;;;;;;;17.20;11.90;;;;;;;;;;6198124;23;20159;-89
2021/07/14 03:47:21;;;;;;;17.30;11.40;;;;;;;;;;6196925;23;20215;-89
2021/07/14 03:50:27;;;;;;;20.90;12.57;;;;;;;;;;6200931;23;20186;-90
2021/07/14 03:53:32;;;;;;;19.63;11.88;;;;;;;;;;6198499;23;20176;-88
2021/07/14 03:56:38;;;;;;;18.23;11.52;;;;;;;;;;6197163;23;20236;-88
2021/07/14 03:59:43;;;;;;;18.33;11.10;;;;;;;;;;6197014;23;20184;-89
2021/07/14 04:03:00;;;;;;;15.65;10.90;;;;;;;;;;6197032;23;20230;-89
2021/07/14 04:06:07;;;;;;;13.45;9.60;;;;;;;;;;6180669;23;20585;-89
2021/07/14 04:09:25;;;;;;;16.73;10.32;;;;;;;;;;6195397;23;20271;-87
2021/07/14 04:12:30;;;;;;;18.95;10.18;;;;;;;;;;6198384;23;20147;-88
2021/07/14 04:15:36;;;;;;;14.40;8.90;;;;;;;;;;6198395;23;20237;-90
2021/07/14 04:18:43;;;;;;;13.02;8.43;;;;;;;;;;6196020;23;20587;-89
2021/07/14 04:21:49;;;;;;;14.25;8.38;;;;;;;;;;6197338;23;20192;-89
2021/07/14 04:24:56;;;;;;;11.45;7.65;;;;;;;;;;6197560;23;20171;-89
2021/07/14 04:28:04;;;;;;;10.38;6.47;;;;;;;;;;6196257;23;20231;-88
2021/07/14 04:31:09;;;;;;;39.38;19.15;;;;;;;;;;6196725;23;20191;-88
2021/07/14 04:34:15;;;;;;;9.93;6.50;;;;;;;;;;6197338;23;20173;-88
2021/07/14 04:37:21;;;;;;;13.73;6.90;;;;;;;;;;6197061;23;20240;-87
2021/07/14 04:40:26;;;;;;;9.00;5.68;;;;;;;;;;6196203;23;20172;-88
2021/07/14 04:43:32;;;;;;;10.10;7.05;;;;;;;;;;6198352;23;20168;-88
2021/07/14 04:46:36;;;;;;;8.90;6.38;;;;;;;;;;6197798;23;20168;-89
2021/07/14 04:49:43;;;;;;;9.00;6.03;;;;;;;;;;6196204;23;20538;-88
2021/07/14 04:52:48;;;;;;;9.85;5.63;;;;;;;;;;6195259;23;20225;-88
2021/07/14 04:55:53;;;;;;;7.80;5.28;;;;;;;;;;6197437;23;20163;-88
2021/07/14 04:58:58;;;;;;;11.60;6.07;;;;;;;;;;6197827;23;20175;-88
2021/07/14 05:02:04;;;;;;;8.30;5.78;;;;;;;;;;6197729;23;20180;-90
2021/07/14 05:05:11;;;;;;;9.75;6.15;;;;;;;;;;6196545;23;20176;-89
2021/07/14 05:08:17;;;;;;;9.15;6.03;;;;;;;;;;6196561;23;20707;-87
2021/07/14 05:11:22;;;;;;;6.82;5.28;;;;;;;;;;6198683;23;20241;-87
2021/07/14 05:14:27;;;;;;;8.77;5.03;;;;;;;;;;6198037;23;20603;-90
2021/07/14 05:17:32;;;;;;;8.10;5.32;;;;;;;;;;6197645;23;20276;-89
2021/07/14 05:20:40;;;;;;;6.65;4.63;;;;;;;;;;6198855;23;20586;-88
2021/07/14 05:23:45;;;;;;;6.72;3.72;;;;;;;;;;6195438;23;20180;-90
2021/07/14 05:26:50;;;;;;;6.30;4.03;;;;;;;;;;6198114;23;20156;-87
2021/07/14 05:29:55;;;;;;;7.85;4.07;;;;;;;;;;6198760;23;20191;-88
2021/07/14 05:33:00;;;;;;;7.95;4.82;;;;;;;;;;6198320;23;20171;-88
2021/07/14 05:36:07;;;;;;;10.27;6.35;;;;;;;;;;6199075;23;20211;-89
2021/07/14 05:39:12;;;;;;;9.38;6.82;;;;;;;;;;6201317;23;20258;-88
2021/07/14 05:42:17;;;;;;;12.63;8.15;;;;;;;;;;6201442;23;20558;-88
2021/07/14 05:45:24;;;;;;;14.18;8.90;;;;;;;;;;6197866;23;20152;-89
2021/07/14 05:48:29;;;;;;;15.38;9.25;;;;;;;;;;6198245;23;20611;-90
2021/07/14 05:51:35;;;;;;;11.60;8.73;;;;;;;;;;6198431;23;20505;-89
2021/07/14 05:54:40;;;;;;;15.02;9.68;;;;;;;;;;6198372;23;20187;-90
2021/07/14 05:57:45;;;;;;;12.77;9.00;;;;;;;;;;6197625;23;20176;-88
2021/07/14 06:00:50;;;;;;;13.57;9.48;;;;;;;;;;6200011;23;20237;-89
2021/07/14 06:03:56;;;;;;;15.57;7.95;;;;;;;;;;6203009;23;20204;-87
2021/07/14 06:07:07;;;;;;;13.75;9.90;;;;;;;;;;6201343;23;20443;-90
2021/07/14 06:10:12;;;;;;;12.70;8.15;;;;;;;;;;6202799;23;20196;-90
2021/07/14 09:36:36;;;;;;;7.43;3.85;;;;;;;;;;6218425;22;20211;-88
2021/07/14 09:39:42;;;;;;;5.13;2.65;;;;;;;;;;6230800;23;20171;-90
2021/07/14 09:42:58;;;;;;;3.97;1.90;;;;;;;;;;6231861;23;20174;-90
2021/07/14 09:46:05;;;;;;;6.68;2.15;;;;;;;;;;6236167;23;20175;-89
2021/07/14 09:49:14;;;;;;;2.67;2.03;;;;;;;;;;6232667;22;20279;-90
2021/07/14 09:52:21;;;;;;;7.53;2.30;;;;;;;;;;6231854;22;20167;-88
2021/07/14 09:55:29;;;;;;;3.55;2.45;;;;;;;;;;6231353;22;20167;-90
2021/07/14 09:58:34;;;;;;;2.72;1.85;;;;;;;;;;6231414;23;20163;-88
2021/07/14 10:01:43;;;;;;;5.78;2.13;;;;;;;;;;6230778;23;20163;-89
2021/07/14 10:04:49;;;;;;;3.45;2.00;;;;;;;;;;6233524;23;20171;-88
2021/07/14 10:08:13;;;;;;;2.30;1.58;;;;;;;;;;6232926;22;20250;-88
2021/07/14 10:11:20;;;;;;;3.20;1.83;;;;;;;;;;6232850;23;20195;-88
2021/07/14 10:14:30;;;;;;;2.72;1.80;;;;;;;;;;6234256;23;20282;-90
2021/07/14 10:17:42;;;;;;;3.55;1.80;;;;;;;;;;6231118;23;20190;-89
2021/07/14 10:20:48;;;;;;;2.85;1.70;;;;;;;;;;6231940;22;20175;-90
2021/07/14 10:23:55;;;;;;;3.65;1.55;;;;;;;;;;6232607;23;20175;-90
2021/07/14 10:27:02;;;;;;;4.18;1.83;;;;;;;;;;6234144;23;20174;-89
2021/07/14 10:30:08;;;;;;;2.75;1.75;;;;;;;;;;6234540;23;20243;-90
2021/07/14 10:33:17;;;;;;;5.88;1.80;;;;;;;;;;6233511;23;20170;-88
2021/07/14 10:36:24;;;;;;;2.30;1.50;;;;;;;;;;6233164;23;20178;-90
2021/07/14 10:39:31;;;;;;;2.70;1.50;;;;;;;;;;6231936;23;20181;-88
2021/07/14 10:42:37;;;;;;;4.88;2.00;;;;;;;;;;6231608;22;20155;-91
2021/07/14 10:45:42;;;;;;;4.65;2.10;;;;;;;;;;6231359;23;20172;-90
2021/07/14 10:48:48;;;;;;;2.85;1.80;;;;;;;;;;6231474;23;20175;-90
2021/07/14 10:51:54;;;;;;;9.15;2.00;;;;;;;;;;6232981;23;20162;-90
2021/07/14 10:55:02;;;;;;;7.35;1.80;;;;;;;;;;6230947;23;20171;-90
2021/07/14 10:58:08;;;;;;;2.70;1.80;;;;;;;;;;6232030;23;20210;-90
2021/07/14 11:01:14;;;;;;;5.88;1.60;;;;;;;;;;6230966;22;20166;-90
2021/07/14 11:04:38;;;;;;;2.65;1.65;;;;;;;;;;6232088;23;20175;-89
2021/07/14 11:07:44;;;;;;;3.08;1.55;;;;;;;;;;6230629;22;20155;-88
2021/07/14 11:10:59;;;;;;;5.93;1.63;;;;;;;;;;6229902;23;20653;-86
2021/07/14 11:14:05;;;;;;;6.40;1.55;;;;;;;;;;6232026;22;20187;-89
2021/07/14 11:17:11;;;;;;;4.13;1.70;;;;;;;;;;6229873;23;20547;-88
2021/07/14 11:20:17;;;;;;;5.10;1.63;;;;;;;;;;6228207;22;20174;-90
2021/07/14 11:23:25;;;;;;;2.80;1.42;;;;;;;;;;6230352;22;20155;-88
2021/07/14 11:26:32;;;;;;;3.33;1.52;;;;;;;;;;6230601;23;20547;-89
2021/07/14 11:29:42;;;;;;;6.32;2.10;;;;;;;;;;6231432;22;20167;-89
2021/07/14 11:32:55;;;;;;;4.97;2.00;;;;;;;;;;6230207;23;20190;-89
2021/07/14 11:36:02;;;;;;;4.22;1.40;;;;;;;;;;6227781;23;20267;-91
2021/07/14 11:39:07;;;;;;;5.75;1.45;;;;;;;;;;6231063;23;20195;-88
2021/07/14 11:42:20;;;;;;;9.98;1.70;;;;;;;;;;6233512;22;20158;-89
2021/07/14 11:45:37;;;;;;;2.25;1.40;;;;;;;;;;6231571;22;20167;-89
2021/07/14 11:48:43;;;;;;;4.15;2.00;;;;;;;;;;6231120;22;20171;-90
2021/07/14 11:51:49;;;;;;;8.48;1.80;;;;;;;;;;6231346;23;20191;-89
2021/07/14 11:55:17;;;;;;;3.88;1.52;;;;;;;;;;6230427;23;20600;-88
2021/07/14 11:58:37;;;;;;;5.72;1.83;;;;;;;;;;6233475;22;20163;-90
2021/07/14 12:02:07;;;;;;;3.08;1.40;;;;;;;;;;6232624;23;20539;-91
2021/07/14 12:05:14;;;;;;;4.35;1.40;;;;;;;;;;6230922;22;20213;-90
2021/07/14 12:08:20;;;;;;;8.45;2.88;;;;;;;;;;6231407;23;20167;-88
2021/07/14 12:11:26;;;;;;;11.73;5.75;;;;;;;;;;6231166;23;20203;-89
2021/07/14 12:14:32;;;;;;;2.00;1.33;;;;;;;;;;6232019;23;20174;-87
2021/07/14 12:17:37;;;;;;;2.13;1.40;;;;;;;;;;6231463;23;20174;-89
2021/07/14 12:20:50;;;;;;;3.33;1.40;;;;;;;;;;6231783;22;20170;-89
2021/07/14 12:23:55;;;;;;;5.03;2.08;;;;;;;;;;6231490;23;20166;-89
2021/07/14 12:27:06;;;;;;;1.73;1.42;;;;;;;;;;6232929;23;20166;-90
2021/07/14 12:30:12;;;;;;;3.10;1.50;;;;;;;;;;6231420;23;20219;-91
2021/07/14 12:33:20;;;;;;;4.78;1.58;;;;;;;;;;6231448;22;20166;-90
2021/07/14 12:36:31;;;;;;;2.15;1.42;;;;;;;;;;6232644;23;20190;-88
2021/07/14 12:39:37;;;;;;;2.92;1.55;;;;;;;;;;6232916;23;20174;-89
2021/07/14 12:42:45;;;;;;;2.58;1.95;;;;;;;;;;6249834;23;20171;-88
2021/07/14 12:45:53;;;;;;;6.38;2.08;;;;;;;;;;6231369;22;20546;-88
2021/07/14 12:49:09;;;;;;;7.45;4.43;;;;;;;;;;6234611;22;20162;-87
2021/07/14 12:52:17;;;;;;;3.67;1.90;;;;;;;;;;6236048;22;20179;-90
2021/07/14 12:55:23;;;;;;;4.43;1.85;;;;;;;;;;6237536;22;20158;-91
2021/07/14 12:58:29;;;;;;;4.80;1.60;;;;;;;;;;6234851;22;20167;-88
2021/07/14 13:01:38;;;;;;;5.05;2.20;;;;;;;;;;6234278;23;20220;-88
2021/07/14 13:04:44;;;;;;;3.88;2.20;;;;;;;;;;6235678;23;20171;-88
2021/07/14 13:07:52;;;;;;;2.20;1.45;;;;;;;;;;6236797;23;20191;-90
2021/07/14 13:10:58;;;;;;;4.10;1.52;;;;;;;;;;6237045;23;20265;-89
2021/07/14 13:14:05;;;;;;;2.97;1.58;;;;;;;;;;6255197;22;20184;-89
2021/07/14 13:17:11;;;;;;;6.35;3.30;;;;;;;;;;6237340;23;20214;-89
2021/07/14 13:20:17;;;;;;;5.78;1.65;;;;;;;;;;6236183;22;20168;-88
2021/07/14 13:23:25;;;;;;;7.15;2.33;;;;;;;;;;6236206;22;20214;-89
2021/07/14 13:26:31;;;;;;;4.47;1.70;;;;;;;;;;6235348;22;20168;-89
2021/07/14 13:29:36;;;;;;;2.60;1.60;;;;;;;;;;6236556;23;20171;-88
2021/07/14 13:32:54;;;;;;;7.32;2.17;;;;;;;;;;6234557;22;20504;-89
2021/07/14 13:36:01;;;;;;;3.17;1.60;;;;;;;;;;6235214;23;20264;-90
2021/07/14 13:39:18;;;;;;;5.43;1.90;;;;;;;;;;6234336;22;20167;-90
2021/07/14 13:42:27;;;;;;;5.15;1.60;;;;;;;;;;6233057;22;20199;-89
2021/07/14 13:45:33;;;;;;;1.92;1.60;;;;;;;;;;6230324;22;20198;-89
2021/07/14 13:48:39;;;;;;;2.70;1.55;;;;;;;;;;6231149;23;20223;-90
2021/07/14 13:51:45;;;;;;;4.10;1.70;;;;;;;;;;6231074;22;20252;-89
2021/07/14 13:54:53;;;;;;;3.17;1.70;;;;;;;;;;6245084;22;20164;-87
2021/07/14 13:58:08;;;;;;;4.70;1.75;;;;;;;;;;6228923;23;20162;-87
2021/07/14 14:01:13;;;;;;;4.35;1.90;;;;;;;;;;6228269;23;20239;-89
2021/07/14 14:04:19;;;;;;;2.88;1.75;;;;;;;;;;6227706;23;20191;-87
2021/07/14 14:07:26;;;;;;;6.10;2.13;;;;;;;;;;6228445;23;20187;-88
2021/07/14 14:10:40;;;;;;;5.18;1.90;;;;;;;;;;6228915;23;20195;-88
2021/07/14 14:13:45;;;;;;;4.55;1.67;;;;;;;;;;6230055;23;20156;-90
2021/07/14 14:16:50;;;;;;;2.08;1.50;;;;;;;;;;6230495;23;20219;-90
2021/07/14 14:19:55;;;;;;;2.33;1.70;;;;;;;;;;6232570;23;20234;-88
2021/07/14 14:23:02;;;;;;;2.25;1.60;;;;;;;;;;6228845;22;20166;-88
2021/07/14 14:26:10;;;;;;;3.85;2.10;;;;;;;;;;6230945;22;20171;-86
2021/07/14 14:29:15;;;;;;;6.75;3.00;;;;;;;;;;6231512;23;20207;-87
2021/07/14 14:32:20;;;;;;;3.85;1.98;;;;;;;;;;6229860;23;20211;-88
2021/07/14 14:35:26;;;;;;;5.47;2.10;;;;;;;;;;6228738;23;20190;-88
2021/07/14 14:38:31;;;;;;;5.55;2.10;;;;;;;;;;6229615;23;20211;-88
2021/07/14 14:41:39;;;;;;;5.97;2.35;;;;;;;;;;6228704;23;20314;-89
2021/07/14 14:44:44;;;;;;;3.72;2.10;;;;;;;;;;6231603;23;20174;-86
2021/07/14 14:47:50;;;;;;;5.18;3.03;;;;;;;;;;6228624;23;20263;-89
2021/07/14 14:50:55;;;;;;;2.22;1.90;;;;;;;;;;6231541;23;20190;-89
2021/07/14 14:54:00;;;;;;;2.35;1.95;;;;;;;;;;6229295;22;20159;-88
2021/07/14 14:57:07;;;;;;;2.08;1.63;;;;;;;;;;6227707;22;20210;-88
2021/07/14 15:00:12;;;;;;;5.78;2.10;;;;;;;;;;6225846;23;20495;-87
2021/07/14 15:03:18;;;;;;;3.90;2.20;;;;;;;;;;6227459;22;20170;-89
2021/07/14 15:06:22;;;;;;;5.88;2.88;;;;;;;;;;6228839;22;20215;-88
2021/07/14 15:09:28;;;;;;;5.13;2.63;;;;;;;;;;6229232;23;20167;-88
2021/07/14 15:12:34;;;;;;;7.88;2.47;;;;;;;;;;6230020;23;20538;-90
2021/07/14 15:15:41;;;;;;;4.10;2.38;;;;;;;;;;6230406;23;20622;-88
2021/07/14 15:18:52;;;;;;;5.38;2.42;;;;;;;;;;6227871;22;20233;-89
2021/07/14 15:21:57;;;;;;;7.35;2.90;;;;;;;;;;6229335;22;20179;-90
2021/07/14 15:25:13;;;;;;;6.05;3.35;;;;;;;;;;6245454;22;20175;-90
2021/07/14 15:31:42;;;;;;;5.38;2.35;;;;;;;;;;6245053;23;20192;-88
2021/07/14 15:34:47;;;;;;;4.70;2.40;;;;;;;;;;6228740;23;20295;-88
2021/07/14 15:37:54;;;;;;;5.55;2.35;;;;;;;;;;6228989;22;20163;-88
2021/07/14 15:40:59;;;;;;;3.60;2.17;;;;;;;;;;6230493;22;20316;-87
2021/07/14 15:44:10;;;;;;;7.80;2.10;;;;;;;;;;6227433;23;20171;-91
2021/07/14 15:47:15;;;;;;;4.72;1.75;;;;;;;;;;6229802;23;20155;-89
2021/07/14 15:50:20;;;;;;;5.47;2.25;;;;;;;;;;6229860;22;20183;-89
2021/07/14 15:53:26;;;;;;;2.67;2.15;;;;;;;;;;6230748;22;20186;-89
2021/07/14 15:56:32;;;;;;;5.53;2.25;;;;;;;;;;6230165;23;20172;-89
2021/07/14 15:59:39;;;;;;;6.85;1.98;;;;;;;;;;6228837;22;20163;-89
2021/07/14 16:02:44;;;;;;;6.03;2.30;;;;;;;;;;6229212;22;20175;-89
2021/07/14 16:05:57;;;;;;;4.80;2.42;;;;;;;;;;6231586;23;20219;-89
2021/07/14 16:09:03;;;;;;;3.80;2.45;;;;;;;;;;6232561;22;20166;-88
2021/07/14 16:12:08;;;;;;;7.40;3.08;;;;;;;;;;6231161;23;20203;-87
2021/07/14 16:15:15;;;;;;;4.80;3.30;;;;;;;;;;6230966;22;20220;-89
2021/07/14 16:18:22;;;;;;;18.60;4.97;;;;;;;;;;6229149;22;20175;-89
2021/07/14 16:21:28;;;;;;;10.55;4.60;;;;;;;;;;6230327;23;20150;-88
2021/07/14 16:24:34;;;;;;;9.32;4.63;;;;;;;;;;6230474;22;20171;-89
2021/07/14 16:27:39;;;;;;;7.85;4.18;;;;;;;;;;6230017;22;20238;-89
2021/07/14 16:30:46;;;;;;;11.13;6.43;;;;;;;;;;6230327;23;20170;-88
2021/07/14 16:33:53;;;;;;;7.38;3.83;;;;;;;;;;6230732;22;20166;-88
2021/07/14 16:36:58;;;;;;;7.00;3.78;;;;;;;;;;6227340;23;20178;-88
2021/07/14 16:40:03;;;;;;;6.60;2.80;;;;;;;;;;6229536;23;20168;-88
2021/07/14 16:43:09;;;;;;;12.40;2.53;;;;;;;;;;6228013;22;20171;-89
2021/07/14 16:46:15;;;;;;;2.10;1.48;;;;;;;;;;6228239;23;20175;-88
2021/07/14 16:49:21;;;;;;;6.30;2.03;;;;;;;;;;6227998;23;20158;-87
2021/07/14 16:52:26;;;;;;;4.85;2.20;;;;;;;;;;6227674;23;20190;-88
2021/07/14 16:55:32;;;;;;;3.17;1.90;;;;;;;;;;6209798;23;20235;-89
2021/07/14 16:58:36;;;;;;;4.78;1.98;;;;;;;;;;6227656;22;20258;-89
2021/07/14 17:01:45;;;;;;;4.00;1.80;;;;;;;;;;6226969;22;20167;-90
2021/07/14 17:04:50;;;;;;;15.35;7.30;;;;;;;;;;6226314;23;20166;-90
2021/07/14 17:07:55;;;;;;;8.52;2.95;;;;;;;;;;6225622;22;20167;-88
2021/07/14 17:11:00;;;;;;;3.45;2.00;;;;;;;;;;6243835;22;20171;-90
2021/07/14 17:14:06;;;;;;;3.90;2.00;;;;;;;;;;6228714;22;20167;-90
2021/07/14 17:17:13;;;;;;;5.90;2.40;;;;;;;;;;6229128;22;20163;-88
2021/07/14 17:20:18;;;;;;;3.65;2.13;;;;;;;;;;6228551;22;20163;-90
2021/07/14 17:23:23;;;;;;;3.08;2.10;;;;;;;;;;6227540;23;20159;-90
2021/07/14 17:26:28;;;;;;;9.65;2.58;;;;;;;;;;6228635;22;20187;-89
2021/07/14 17:29:33;;;;;;;4.63;2.55;;;;;;;;;;6228626;23;20171;-89
2021/07/14 17:32:41;;;;;;;4.38;2.25;;;;;;;;;;6229225;22;20198;-89
2021/07/14 17:35:47;;;;;;;5.05;2.50;;;;;;;;;;6229141;23;20190;-89
2021/07/14 17:38:52;;;;;;;12.55;6.53;;;;;;;;;;6227035;22;20163;-88
2021/07/14 17:41:58;;;;;;;4.88;2.40;;;;;;;;;;6228619;22;20184;-89
2021/07/14 17:45:03;;;;;;;5.38;2.20;;;;;;;;;;6231489;22;20154;-91
2021/07/14 17:48:09;;;;;;;3.00;1.77;;;;;;;;;;6228304;22;20635;-89
2021/07/14 17:51:15;;;;;;;3.60;2.03;;;;;;;;;;6226733;23;20167;-90
2021/07/14 17:54:20;;;;;;;4.93;2.28;;;;;;;;;;6226967;22;20223;-89
2021/07/14 17:57:25;;;;;;;4.70;2.00;;;;;;;;;;6228039;23;20155;-89
2021/07/14 18:00:30;;;;;;;5.10;2.30;;;;;;;;;;6232136;23;20176;-89
2021/07/14 18:03:37;;;;;;;6.45;2.13;;;;;;;;;;6229838;23;20171;-90
2021/07/14 18:06:43;;;;;;;5.47;2.30;;;;;;;;;;6232002;23;20151;-89
2021/07/14 18:09:48;;;;;;;5.18;2.20;;;;;;;;;;6231995;23;20179;-89
2021/07/14 18:12:54;;;;;;;4.10;2.28;;;;;;;;;;6231818;22;20267;-88
2021/07/14 18:15:59;;;;;;;6.38;2.25;;;;;;;;;;6233099;22;20234;-89
2021/07/14 18:19:07;;;;;;;3.05;2.05;;;;;;;;;;6231827;22;20228;-89
2021/07/14 18:22:12;;;;;;;4.57;2.42;;;;;;;;;;6232129;22;20242;-88
2021/07/14 18:25:18;;;;;;;8.30;2.58;;;;;;;;;;6231629;22;20167;-89
2021/07/14 18:28:25;;;;;;;6.45;2.53;;;;;;;;;;6231335;23;20171;-88
2021/07/14 18:31:30;;;;;;;9.45;2.95;;;;;;;;;;6232252;23;20163;-89
2021/07/14 18:34:37;;;;;;;4.82;3.05;;;;;;;;;;6231156;23;20175;-89
2021/07/14 18:37:42;;;;;;;4.45;2.95;;;;;;;;;;6229789;23;20171;-89
2021/07/14 18:40:51;;;;;;;11.40;3.30;;;;;;;;;;6232191;22;20170;-90
2021/07/14 18:43:57;;;;;;;4.85;3.55;;;;;;;;;;6230222;23;20213;-89
2021/07/14 18:47:07;;;;;;;7.13;3.10;;;;;;;;;;6230007;23;20191;-88
2021/07/14 18:50:15;;;;;;;6.57;3.47;;;;;;;;;;6232472;22;20167;-89
2021/07/14 18:53:20;;;;;;;5.28;3.13;;;;;;;;;;6231274;22;20202;-88
2021/07/14 18:56:26;;;;;;;9.18;4.25;;;;;;;;;;6233129;23;20261;-88
2021/07/14 18:59:32;;;;;;;4.28;2.95;;;;;;;;;;6231522;23;20607;-88
2021/07/14 19:02:40;;;;;;;5.28;3.15;;;;;;;;;;6215949;22;20204;-89
2021/07/14 19:05:47;;;;;;;5.63;3.20;;;;;;;;;;6230683;23;20178;-90
2021/07/14 19:08:55;;;;;;;5.20;3.58;;;;;;;;;;6229189;22;20191;-89
2021/07/14 19:12:00;;;;;;;7.25;3.17;;;;;;;;;;6228172;23;20251;-89
2021/07/14 19:15:09;;;;;;;5.38;3.10;;;;;;;;;;6247836;23;20175;-89
2021/07/14 19:18:17;;;;;;;6.72;3.17;;;;;;;;;;6236167;23;20171;-89
2021/07/14 19:21:26;;;;;;;7.53;3.83;;;;;;;;;;6234503;23;20231;-89
2021/07/14 19:24:31;;;;;;;6.10;3.78;;;;;;;;;;6232940;22;20178;-89
2021/07/14 19:27:40;;;;;;;4.72;3.20;;;;;;;;;;6233159;22;20171;-89
2021/07/14 19:30:46;;;;;;;5.00;3.05;;;;;;;;;;6231993;23;20191;-87
2021/07/14 19:33:52;;;;;;;6.28;3.65;;;;;;;;;;6230563;22;20812;-88
2021/07/14 19:36:59;;;;;;;8.60;3.95;;;;;;;;;;6228726;22;20186;-90
2021/07/14 19:40:05;;;;;;;9.05;3.78;;;;;;;;;;6229206;22;20170;-90
2021/07/14 19:43:10;;;;;;;5.85;3.80;;;;;;;;;;6229000;22;20701;-89
2021/07/14 19:46:16;;;;;;;6.00;3.75;;;;;;;;;;6230548;23;20670;-89
2021/07/14 19:49:21;;;;;;;7.43;3.83;;;;;;;;;;6230616;23;20241;-88
2021/07/14 19:52:30;;;;;;;6.57;3.45;;;;;;;;;;6230290;23;20256;-89
2021/07/14 19:55:35;;;;;;;6.57;3.80;;;;;;;;;;6229963;22;20206;-89
2021/07/14 19:58:45;;;;;;;9.30;4.07;;;;;;;;;;6229816;23;20167;-90
2021/07/14 20:01:50;;;;;;;6.68;4.18;;;;;;;;;;6230481;23;20172;-87
2021/07/14 20:04:55;;;;;;;8.65;4.40;;;;;;;;;;6231197;22;20171;-89
2021/07/14 20:08:02;;;;;;;11.85;6.35;;;;;;;;;;6229207;22;20303;-89
2021/07/14 20:11:07;;;;;;;15.02;6.78;;;;;;;;;;6229840;22;20171;-88
2021/07/14 20:14:16;;;;;;;12.57;6.63;;;;;;;;;;6232581;23;20179;-88
2021/07/14 20:17:21;;;;;;;14.32;7.53;;;;;;;;;;6226996;23;20617;-89
2021/07/14 20:20:26;;;;;;;11.23;7.72;;;;;;;;;;6230931;23;20171;-89
2021/07/14 20:23:33;;;;;;;12.18;6.43;;;;;;;;;;6232176;22;20222;-90
2021/07/14 20:26:38;;;;;;;16.65;8.00;;;;;;;;;;6228096;23;20248;-90
2021/07/14 20:29:44;;;;;;;12.27;7.25;;;;;;;;;;6229750;23;20198;-90
2021/07/14 20:32:50;;;;;;;14.15;8.82;;;;;;;;;;6226588;23;20291;-88
2021/07/14 20:35:56;;;;;;;14.68;8.15;;;;;;;;;;6226768;23;20287;-90
2021/07/14 20:39:05;;;;;;;18.42;8.82;;;;;;;;;;6227382;22;20650;-89
2021/07/14 20:42:10;;;;;;;13.07;8.38;;;;;;;;;;6228935;23;20657;-88
2021/07/14 20:45:16;;;;;;;14.63;9.43;;;;;;;;;;6228799;22;20163;-90
2021/07/14 20:48:21;;;;;;;13.77;9.38;;;;;;;;;;6228137;23;20262;-89
2021/07/14 20:51:26;;;;;;;14.75;10.07;;;;;;;;;;6228158;22;20198;-90
2021/07/14 20:54:33;;;;;;;16.08;10.18;;;;;;;;;;6226373;22;20610;-88
2021/07/14 20:57:38;;;;;;;17.48;9.93;;;;;;;;;;6228568;23;20168;-89
2021/07/14 21:00:47;;;;;;;15.55;10.10;;;;;;;;;;6228803;22;20235;-87
2021/07/14 21:03:54;;;;;;;16.05;10.57;;;;;;;;;;6229104;23;20167;-88
2021/07/14 21:06:59;;;;;;;15.10;10.43;;;;;;;;;;6226241;23;20186;-88
2021/07/14 21:10:08;;;;;;;18.60;11.90;;;;;;;;;;6227238;23;20509;-88
2021/07/14 21:13:13;;;;;;;17.05;11.40;;;;;;;;;;6228099;23;20190;-89
2021/07/14 21:16:25;;;;;;;19.38;11.15;;;;;;;;;;6228696;23;20258;-88
2021/07/14 21:19:30;;;;;;;16.17;11.20;;;;;;;;;;6227904;23;20175;-89
2021/07/14 21:22:36;;;;;;;18.90;11.70;;;;;;;;;;6228161;22;20255;-87
2021/07/14 21:25:43;;;;;;;18.08;10.70;;;;;;;;;;6226853;23;20310;-89
2021/07/14 21:28:48;;;;;;;17.75;10.27;;;;;;;;;;6226168;23;20163;-90
2021/07/14 21:31:53;;;;;;;24.05;11.80;;;;;;;;;;6228224;22;20162;-89
2021/07/14 21:34:59;;;;;;;20.73;11.52;;;;;;;;;;6228885;23;20171;-88
2021/07/14 21:38:04;;;;;;;16.83;10.60;;;;;;;;;;6227950;23;20163;-89
2021/07/14 21:41:11;;;;;;;15.85;10.15;;;;;;;;;;6227757;23;20167;-89
2021/07/14 21:44:16;;;;;;;16.77;11.02;;;;;;;;;;6228167;23;20167;-89
2021/07/14 21:47:21;;;;;;;15.25;10.60;;;;;;;;;;6228490;23;20187;-90
2021/07/14 21:50:27;;;;;;;19.17;10.77;;;;;;;;;;6225443;23;20213;-89
2021/07/14 21:53:32;;;;;;;21.08;11.55;;;;;;;;;;6226822;22;20190;-89
2021/07/14 21:56:38;;;;;;;18.60;11.10;;;;;;;;;;6227726;22;20159;-89
2021/07/14 21:59:43;;;;;;;16.33;11.43;;;;;;;;;;6227025;23;20167;-88
2021/07/14 22:03:02;;;;;;;25.27;12.63;;;;;;;;;;6227689;22;20174;-89
2021/07/14 22:06:06;;;;;;;18.20;12.07;;;;;;;;;;6226433;23;20191;-89